ADDS METAR Data INFO
IDs: Format: Raw Decoded Include TAF

Data at: 2338 UTC 19 Oct 2017

KDZB 192335Z AUTO 14003KT 10SM CLR 25/14 A3006 RMK AO2 T02470142
KDZB 192315Z AUTO 14005KT 10SM SCT050 25/14 A3006 RMK AO2 LTG DSNT W T02540138
KDZB 192255Z AUTO 15006KT 10SM SCT050 26/13 A3006 RMK AO2 LTG DSNT W T02640133
KDZB 192235Z AUTO 16006KT 130V190 10SM SCT050 27/14 A3006 RMK AO2 T02720136
KDZB 192215Z AUTO 14007KT 10SM SCT050 27/14 A3006 RMK AO2 T02660136
KDZB 192155Z AUTO 15009G14KT 10SM SCT050 27/13 A3007 RMK AO2 T02710134
KDZB 192135Z AUTO 17009KT 10SM SCT050 28/13 A3006 RMK AO2 T02760133
KDZB 192115Z AUTO 16006KT 10SM SCT050 28/14 A3006 RMK AO2 T02810139
KDZB 192055Z AUTO 16007KT 120V180 10SM CLR 28/14 A3007 RMK AO2 T02800142
KDZB 192035Z AUTO 15006KT 10SM CLR 28/14 A3007 RMK AO2 T02750144
KDZB 192015Z AUTO 14004KT 10SM SCT048 28/14 A3008 RMK AO2 T02770142
KDZB 191955Z AUTO 18009KT 10SM SCT048 27/15 A3008 RMK AO2 T02740145
KDZB 191935Z AUTO 16005G08KT 10SM SCT047 27/15 A3009 RMK AO2 LTG DSNT W T02660145
KDZB 191915Z AUTO 19006KT 10SM SCT045 27/14 A3010 RMK AO2 T02710143
KDZB 191855Z AUTO 16004KT 10SM SCT041 26/15 A3011 RMK AO2 T02630150
KDZB 191835Z AUTO 16008KT 100V190 10SM SCT039 27/15 A3013 RMK AO2 T02650152
KDZB 191815Z AUTO 19006KT 10SM SCT037 27/15 A3014 RMK AO2 T02650151
KDZB 191755Z AUTO 18007G15KT 10SM SCT035 25/16 A3014 RMK AO2 LTG DSNT W T02530156 10255 20102
KDZB 191735Z AUTO 16006KT 10SM SCT031 25/16 A3015 RMK AO2 T02520162
KDZB 191715Z AUTO 14008KT 10SM SCT028 25/16 A3016 RMK AO2 T02500160
KDZB 191655Z AUTO 17005KT 10SM SCT028 24/16 A3016 RMK AO2 T02430163
KDZB 191635Z AUTO 14004KT 10SM SCT024 24/16 A3017 RMK AO2 T02410164
KDZB 191615Z AUTO 15004KT 10SM CLR 23/16 A3017 RMK AO2 T02270163
KDZB 191555Z AUTO 17005KT 10SM CLR 22/16 A3017 RMK AO2 T02160161
KDZB 191535Z AUTO 16006KT 10SM CLR 22/16 A3017 RMK AO2 T02170160
KDZB 191515Z AUTO 15003KT 10SM CLR 22/16 A3017 RMK AO2 T02180163
KDZB 191455Z AUTO 00000KT 10SM CLR 19/16 A3016 RMK AO2 T01870158
KDZB 191435Z AUTO 00000KT 10SM CLR 17/15 A3016 RMK AO2 T01660147
KDZB 191415Z AUTO 00000KT 10SM CLR 15/15 A3015 RMK AO2 T01530150
KDZB 191355Z AUTO 00000KT 7SM CLR 13/13 A3013 RMK AO2 T01290129
KDZB 191335Z AUTO 00000KT 7SM CLR 13/13 A3013 RMK AO2 T01260126
KDZB 191315Z AUTO 00000KT 7SM CLR 12/12 A3013 RMK AO2 T01230123
KDZB 191255Z AUTO 00000KT 7SM CLR 14/13 A3013 RMK AO2 T01370133
KDZB 191235Z AUTO 18004KT 10SM CLR 15/15 A3012 RMK AO2 T01500150
KDZB 191215Z AUTO 00000KT 10SM CLR 10/10 A3012 RMK AO2 T01040097
KDZB 191155Z AUTO 00000KT 10SM CLR 11/10 A3012 RMK AO2 T01050098 10166 20105
KDZB 191135Z AUTO 00000KT 10SM CLR 11/10 A3012 RMK AO2 T01110104
KDZB 191115Z AUTO 00000KT 10SM CLR 12/11 A3012 RMK AO2 T01180107
KDZB 191055Z AUTO 00000KT 10SM CLR 13/11 A3011 RMK AO2 T01270112
KDZB 191035Z AUTO 00000KT 10SM CLR 14/12 A3011 RMK AO2 T01410124
KDZB 191015Z AUTO 17003KT 10SM CLR 15/13 A3011 RMK AO2 T01450126
KDZB 191000Z AUTO 18003KT 10SM CLR 15/12 A3011 RMK AO2 T01450123
KDZB 190935Z AUTO 17003KT 10SM CLR 15/12 A3011 RMK AO2 T01460120
KDZB 190915Z AUTO 18003KT 10SM CLR 14/11 A3011 RMK AO2 T01390113
KDZB 190855Z AUTO 16003KT 10SM CLR 14/11 A3012 RMK AO2 T01410110
KDZB 190835Z AUTO 16003KT 10SM CLR 15/11 A3012 RMK AO2 T01450110
KDZB 190815Z AUTO 17003KT 10SM CLR 15/11 A3012 RMK AO2 T01460105
KDZB 190755Z AUTO 17004KT 10SM CLR 15/10 A3012 RMK AO2 T01450099
KDZB 190735Z AUTO 16004KT 10SM CLR 15/10 A3012 RMK AO2 T01450096
KDZB 190715Z AUTO 17003KT 10SM CLR 15/10 A3011 RMK AO2 T01450095
KDZB 190655Z AUTO 16004KT 10SM CLR 15/10 A3012 RMK AO2 T01530096
KDZB 190635Z AUTO 15004KT 10SM CLR 16/10 A3012 RMK AO2 T01610097
KDZB 190615Z AUTO 18004KT 10SM CLR 16/10 A3012 RMK AO2 T01630096
KDZB 190555Z AUTO 17003KT 10SM CLR 17/10 A3013 RMK AO2 T01660095 10222 20166 402870061
KDZB 190535Z AUTO 16004KT 10SM CLR 17/10 A3013 RMK AO2 T01700095
KDZB 190515Z AUTO 16004KT 10SM CLR 17/10 A3012 RMK AO2 T01720097
KDZB 190455Z AUTO 16004KT 10SM CLR 17/10 A3012 RMK AO2 T01700098
KDZB 190435Z AUTO 16004KT 10SM CLR 17/10 A3013 RMK AO2 T01720100
KDZB 190415Z AUTO 16004KT 10SM CLR 18/10 A3012 RMK AO2 T01750101
KDZB 190355Z AUTO 16004KT 10SM CLR 18/10 A3013 RMK AO2 T01770101
KDZB 190335Z AUTO 16004KT 10SM CLR 18/10 A3012 RMK AO2 T01770100
KDZB 190315Z AUTO 16004KT 10SM CLR 17/10 A3011 RMK AO2 T01730097
KDZB 190255Z AUTO 16004KT 10SM CLR 18/10 A3011 RMK AO2 T01750095
KDZB 190235Z AUTO 15005KT 10SM CLR 18/09 A3011 RMK AO2 T01800092
KDZB 190215Z AUTO 16005KT 10SM CLR 18/09 A3011 RMK AO2 T01810091
KDZB 190155Z AUTO 14004KT 10SM CLR 18/09 A3010 RMK AO2 T01810090
KDZB 190135Z AUTO 16003KT 10SM CLR 19/09 A3010 RMK AO2 T01850090
KDZB 190115Z AUTO 15003KT 10SM CLR 19/09 A3010 RMK AO2 T01940089
KDZB 190055Z AUTO 15004KT 10SM CLR 20/09 A3009 RMK AO2 T02010087
KDZB 190035Z AUTO 15003KT 10SM CLR 20/09 A3009 RMK AO2 T02040085
KDZB 190015Z AUTO 15003KT 10SM CLR 21/08 A3009 RMK AO2 T02110081
KDZB 182355Z AUTO 16003KT 7SM CLR 22/08 A3008 RMK AO2 T02240077 10287 20224
KDZB 182335Z AUTO 16003KT 10SM CLR 24/07 A3008 RMK AO2 T02410073
KDZB 182315Z AUTO 16004KT 10SM CLR 25/07 A3008 RMK AO2 T02520070
KDZB 182255Z AUTO 15005KT 10SM CLR 27/07 A3008 RMK AO2 T02660073
KDZB 182235Z AUTO 17003KT 10SM CLR 27/07 A3008 RMK AO2 T02700069
KDZB 182215Z AUTO 19004KT 10SM CLR 27/06 A3008 RMK AO2 T02700057
KDZB 182155Z AUTO 17005KT 10SM CLR 28/06 A3008 RMK AO2 T02810059
KDZB 182135Z AUTO 16006KT 110V180 10SM CLR 28/06 A3009 RMK AO2 T02840059
KDZB 182115Z AUTO 17005KT 10SM CLR 29/06 A3009 RMK AO2 T02850055
KDZB 182055Z AUTO 18006KT 10SM CLR 28/06 A3009 RMK AO2 T02840061
KDZB 182035Z AUTO 16005KT 10SM CLR 28/06 A3010 RMK AO2 T02820062
KDZB 182015Z AUTO 19006KT 10SM CLR 28/06 A3010 RMK AO2 T02830064
KDZB 181955Z AUTO 18006KT 10SM CLR 28/06 A3011 RMK AO2 T02800059
KDZB 181935Z AUTO 19005KT 10SM CLR 28/07 A3012 RMK AO2 T02790065
KDZB 181915Z AUTO 16004KT 10SM CLR 27/06 A3013 RMK AO2 T02730060
KDZB 181855Z AUTO 18006KT 10SM CLR 27/07 A3014 RMK AO2 T02740073
KDZB 181835Z AUTO 17006KT 10SM CLR 27/07 A3015 RMK AO2 T02700073
KDZB 181815Z AUTO 15006KT 10SM CLR 27/08 A3016 RMK AO2 T02660079
KDZB 181755Z AUTO 17005KT 10SM CLR 26/07 A3017 RMK AO2 T02600072 10260 20061
KDZB 181735Z AUTO 17003KT 10SM CLR 25/08 A3017 RMK AO2 T02510075
KDZB 181715Z AUTO 15006KT 10SM CLR 24/08 A3018 RMK AO2 T02440083
KDZB 181655Z AUTO 00000KT 10SM CLR 24/09 A3018 RMK AO2 T02420089
KDZB 181635Z AUTO 20004KT 10SM CLR 24/08 A3018 RMK AO2 T02350084
KDZB 181615Z AUTO 18004KT 10SM CLR 23/08 A3018 RMK AO2 T02320083
KDZB 181555Z AUTO 22004KT 10SM CLR 22/08 A3018 RMK AO2 T02200080
KDZB 181535Z AUTO 20006KT 10SM CLR 22/08 A3018 RMK AO2 T02150081
KDZB 181515Z AUTO 18005KT 10SM CLR 20/09 A3018 RMK AO2 T02040085
KDZB 181455Z AUTO 00000KT 10SM CLR 19/10 A3018 RMK AO2 T01890097
KDZB 181435Z AUTO 00000KT 10SM CLR 17/09 A3018 RMK AO2 T01710092
KDZB 181415Z AUTO 00000KT 10SM CLR 15/09 A3018 RMK AO2 T01540087
KDZB 181355Z AUTO 00000KT 10SM CLR 12/09 A3017 RMK AO2 T01220090
KDZB 181335Z AUTO 00000KT 10SM CLR 09/07 A3016 RMK AO2 T00880072
KDZB 181315Z AUTO 00000KT 10SM CLR 07/06 A3016 RMK AO2 T00660057
KDZB 181255Z AUTO 19003KT 10SM CLR 06/05 A3016 RMK AO2 T00610053
KDZB 181235Z AUTO 00000KT 10SM CLR 07/06 A3015 RMK AO2 T00660057
KDZB 181215Z AUTO 19003KT 10SM CLR 07/06 A3015 RMK AO2 T00650056
KDZB 181155Z AUTO 16003KT 10SM CLR 06/06 A3015 RMK AO2 T00630056 10145 20061